South Seaville, New Jersey
Current Conditions -  °F | °C
As of 9:55 PM on Saturday 25 Oct 2014 (Local Time) from KWWD Reporting Station
Clear Clear  
Wind Chill: 61°   Ceiling: Unl
Heat Index: 61°   Visibility: 10mi
Dew Point: 45°   Wind: 12mph
Humidity: 55%   Direction: 220°SW
Pressure: 29.73"   Gusts: NA
Location:  39.18°N, 74.76°W
Report Text: KWWD 260155Z AUTO 22010KT 10SM CLR 16/07 A2973 RMK AO1
Loading
Personal Weather Stations






























Interactive Weather Map New forecast layout! Learn more

10-Day Weather Forecast

Advertisements
Track Severe Weather on mobile